Fritch, TX (79036)

1:05 AM CDT on July 31, 2014 (GMT -0500)
KTXFRITC2 Elev 3160 ft | 35.64 °N, 101.60 °W | Change Station

Current weather conditions updated 11 seconds ago

Mostly Cloudy
Mostly Cloudy
64.9 °F
Feels Like 64.9 °F
N
3.8
Wind Variable Wind from NNW
Gusts 7.4 mph

Today is forecast to be nearly the same temperature as yesterday.

Today
High -- | Low -- °F
--% Chance of Precip.
Yesterday
High -- | Low -- °F
Precip. -- in
6:53 AM 8:51 PM
Waxing Crescent, 16% visible
Pressure 30.13 in
Visibility 10.0 miles
Clouds Mostly Cloudy 1500 ft
Mostly Cloudy 2700 ft
Mostly Cloudy 3500 ft
Dew Point 61 °F
Humidity 88%
Rainfall 0.00 in
Snow Depth Not available.
UV 0 out of 12
Pollen 2.00 out of 12
Air Quality Not available.
Flu Activity Not available.
METAR KBGD 310551Z AUTO 02011KT 10SM BKN015 BKN027 BKN035 18/15 A3023 RMK AO2 SLP201 60000 T01830150 10211 20183 402560183 50003

More Conditions Fewer Conditions

Pressure 30.13 in
Visibility 10.0 miles
Clouds Mostly Cloudy 1500 ft
Mostly Cloudy 2700 ft
Mostly Cloudy 3500 ft
Dew Point 61 °F
Humidity 88%
Rainfall 0.00 in
Snow Depth Not available.
UV 0 out of 12
Pollen 2.00 out of 12
Air Quality Not available.
Flu Activity Not available.
METAR KBGD 310551Z AUTO 02011KT 10SM BKN015 BKN027 BKN035 18/15 A3023 RMK AO2 SLP201 60000 T01830150 10211 20183 402560183 50003

More Conditions Fewer Conditions

10-Day Weather Forecast

Almanac

Astronomy

Jul. 31, 2014 Rise Set
Actual Time 6:53 AM CDT 8:51 PM CDT
Civil Twilight 6:25 AM CDT 9:19 PM CDT
Nautical Twilight 5:51 AM CDT 9:53 PM CDT
Astronomical Twilight 5:14 AM CDT 10:29 PM CDT
Moon 11:12 AM CDT 11:16 PM CDT
Length of Visible Light 14h 53m
Length of Day
13h 57m
Tomorrow will be 1m 39s shorter.
Waxing Crescent, 16% of the Moon is Illuminated
Today
Waxing Crescent
Aug 3
First Quarter
Aug 10
Full
Aug 17
Last Quarter
Aug 25
New

Today's Extremes

State Highs State Lows

Community

WunderPhotos

Upload Photos

1,739,251 photos uploaded!

Nearby

Snow Depth

Station Depth Elevation
No new snow has been reported.

Earthquake Activity

City Distance Mag. Time & Date
No recent earthquake activity has been reported nearby.
Minimum magnitude displayed is 2.5.

Coastal Water Temperatures

Place Temperature
No Stations Reporting

Nearby Weather Stations

Station Location Temp. Dew Point Humidity Wind Precip. Elev Updated Type
Fritch, TX 64.9 °F 61 °F 88% NNW  at  3.8 mph 0.00 in / hr 3160 ft 1:04 AM CDT Rapid Fire
RAWS CEDAR TX, Sanford, TX 65 °F 60 °F 83% NE  at  6 mph 0.00 in / hr 3052 ft 11:35 PM CDT MADIS
Borger Country Club, Borger, TX 63.6 °F 60 °F 88% NE  at  1.0 mph 0.00 in / hr 3239 ft 1:04 AM CDT Rapid Fire

Show More Stations Show Fewer Stations